Home > Products > Valid Products > TAF

000
FTUS42 KKEY 051146
TAFEYW
TAF
KEYW 051146Z 0512/0612 12011G16KT P6SM SCT025=



000
FTUS42 KKEY 051146
TAFEYW
TAF
KEYW 051146Z 0512/0612 12011G16KT P6SM SCT025=



000
FTUS42 KKEY 051146
TAFMTH
TAF
KMTH 051146Z 0512/0612 12008G13KT P6SM SCT025=



000
FTUS42 KKEY 050900 AAA
TAFEYW
TAF AMD
KEYW 050900Z 0509/0606 10011KT P6SM SCT023=



000
FTUS42 KKEY 050900 AAA
TAFEYW
TAF AMD
KEYW 050900Z 0509/0606 10011KT P6SM SCT023=



000
FTUS42 KKEY 050534
TAFMTH
TAF
KMTH 050534Z 0506/0606 11008KT P6SM SCT023=



000
FTUS42 KKEY 050534
TAFEYW
TAF
KEYW 050534Z 0506/0606 10011KT P6SM SCT023=



000
FTUS42 KKEY 050534
TAFEYW
TAF
KEYW 050534Z 0506/0606 10011KT P6SM SCT023=



000
FTUS42 KKEY 042339
TAFMTH
TAF
KMTH 042339Z 0500/0524 11008KT P6SM SCT025=



000
FTUS42 KKEY 042339
TAFEYW
TAF
KEYW 042339Z 0500/0524 11012G18KT P6SM SCT025
     FM050200 09009KT P6SM SCT025=



000
FTUS42 KKEY 042339
TAFEYW
TAF
KEYW 042339Z 0500/0524 11012G18KT P6SM SCT025
     FM050200 09009KT P6SM SCT025=



000
FTUS42 KKEY 041755
TAFMTH
TAF
KMTH 041755Z 0418/0518 11008G15KT P6SM FEW025
     FM050000 09007KT P6SM FEW025=



000
FTUS42 KKEY 041755
TAFEYW
TAF
KEYW 041755Z 0418/0518 12011G17KT P6SM FEW025
     FM050000 09009KT P6SM FEW025=



000
FTUS42 KKEY 041755
TAFEYW
TAF
KEYW 041755Z 0418/0518 12011G17KT P6SM FEW025
     FM050000 09009KT P6SM FEW025=



000
FTUS42 KKEY 041755
TAFEYW
TAF
KEYW 041755Z 0418/0518 12011G17KT P6SM FEW025
     FM050000 09009KT P6SM FEW025=



000
FTUS42 KKEY 041755
TAFEYW
TAF
KEYW 041755Z 0418/0518 12011G17KT P6SM FEW025
     FM050000 09009KT P6SM FEW025=



000
FTUS42 KKEY 041755
TAFMTH
TAF
KMTH 041755Z 0418/0518 11008G15KT P6SM FEW025
     FM050000 09007KT P6SM FEW025=



000
FTUS42 KKEY 041506 AAA
TAFEYW
TAF AMD
KEYW 041506Z 0415/0512 12010G16KT P6SM FEW025
     FM050000 09009KT P6SM FEW025=



000
FTUS42 KKEY 041506 AAA
TAFEYW
TAF AMD
KEYW 041506Z 0415/0512 12010G16KT P6SM FEW025
     FM050000 09009KT P6SM FEW025=



000
FTUS42 KKEY 041137
TAFEYW
TAF
KEYW 041137Z 0412/0512 11009KT P6SM FEW025
     FM041400 11011G18KT P6SM FEW025
     FM050000 09009KT P6SM FEW025=



000
FTUS42 KKEY 041137
TAFMTH
TAF
KMTH 041137Z 0412/0512 11007KT P6SM FEW025
     FM041400 11009G16KT P6SM FEW025
     FM050000 09007KT P6SM FEW025=



000
FTUS42 KKEY 041137
TAFEYW
TAF
KEYW 041137Z 0412/0512 11009KT P6SM FEW025
     FM041400 11011G18KT P6SM FEW025
     FM050000 09009KT P6SM FEW025=



000
FTUS42 KKEY 040900 AAA
TAFEYW
TAF AMD
KEYW 040900Z 0409/0506 11010KT P6SM FEW022
     FM041400 11011G18KT P6SM FEW025
     FM050000 09009KT P6SM FEW025=



000
FTUS42 KKEY 040900 AAA
TAFMTH
TAF AMD
KMTH 040900Z 0409/0506 11007KT P6SM SKC
     FM041400 11009G16KT P6SM FEW025
     FM050000 09007KT P6SM FEW025=



000
FTUS42 KKEY 040900 AAA
TAFEYW
TAF AMD
KEYW 040900Z 0409/0506 11010KT P6SM FEW022
     FM041400 11011G18KT P6SM FEW025
     FM050000 09009KT P6SM FEW025=



000
FTUS42 KKEY 040900 AAA
TAFEYW
TAF AMD
KEYW 040900Z 0409/0506 11010KT P6SM FEW022
     FM041400 11011G18KT P6SM FEW025
     FM050000 09009KT P6SM FEW025=



000
FTUS42 KKEY 040900 AAA
TAFMTH
TAF AMD
KMTH 040900Z 0409/0506 11007KT P6SM SKC
     FM041400 11009G16KT P6SM FEW025
     FM050000 09007KT P6SM FEW025=



000
FTUS42 KKEY 040900 AAA
TAFEYW
TAF AMD
KEYW 040900Z 0409/0506 11010KT P6SM FEW022
     FM041400 11011G18KT P6SM FEW025
     FM050000 09009KT P6SM FEW025=



000
FTUS42 KKEY 040537
TAFEYW
TAF
KEYW 040537Z 0406/0506 11011KT P6SM SCT025
     FM041400 11011G18KT P6SM SCT025=



000
FTUS42 KKEY 040537
TAFEYW
TAF
KEYW 040537Z 0406/0506 11011KT P6SM SCT025
     FM041400 11011G18KT P6SM SCT025=



000
FTUS42 KKEY 040537
TAFMTH
TAF
KMTH 040537Z 0406/0506 11008KT P6SM SCT025
     FM041400 11009G16KT P6SM SCT025=



000
FTUS42 KKEY 040121 AAA
TAFMTH
TAF AMD
KMTH 040121Z 0401/0424 11008G15KT P6SM VCTS FEW020CB SCT025
     FM040230 11008KT P6SM SCT025
     FM041400 11009G16KT P6SM SCT025=



000
FTUS42 KKEY 032338
TAFEYW
TAF
KEYW 032338Z 0400/0424 11011KT P6SM SCT025
     FM041400 11011G18KT P6SM SCT025=



000
FTUS42 KKEY 032338
TAFEYW
TAF
KEYW 032338Z 0400/0424 11011KT P6SM SCT025
     FM041400 11011G18KT P6SM SCT025=



000
FTUS42 KKEY 032338
TAFMTH
TAF
KMTH 032338Z 0400/0424 11008KT P6SM SCT025
     FM041400 11008KT P6SM SCT025=



000
FTUS42 KKEY 031735
TAFEYW
TAF
KEYW 031735Z 0318/0418 11010KT P6SM SCT025=



000
FTUS42 KKEY 031735
TAFMTH
TAF
KMTH 031735Z 0318/0418 12007KT P6SM SCT025=



000
FTUS42 KKEY 031735
TAFEYW
TAF
KEYW 031735Z 0318/0418 11010KT P6SM SCT025=



000
FTUS42 KKEY 031735
TAFMTH
TAF
KMTH 031735Z 0318/0418 12007KT P6SM SCT025=



000
FTUS42 KKEY 031735
TAFEYW
TAF
KEYW 031735Z 0318/0418 11010KT P6SM SCT025=



000
FTUS42 KKEY 031455 AAA
TAFEYW
TAF AMD
KEYW 031455Z 0315/0412 11009KT P6SM SCT025=



000
FTUS42 KKEY 031455 AAA
TAFEYW
TAF AMD
KEYW 031455Z 0315/0412 11009KT P6SM SCT025=



000
FTUS42 KKEY 031138
TAFMTH
TAF
KMTH 031138Z 0312/0412 10007KT P6SM SCT025=



000
FTUS42 KKEY 031138
TAFEYW
TAF
KEYW 031138Z 0312/0412 10010KT P6SM SCT025=



000
FTUS42 KKEY 031138
TAFEYW
TAF
KEYW 031138Z 0312/0412 10010KT P6SM SCT025=



000
FTUS42 KKEY 031138
TAFEYW
TAF
KEYW 031138Z 0312/0412 10010KT P6SM SCT025=



000
FTUS42 KKEY 031138
TAFMTH
TAF
KMTH 031138Z 0312/0412 10007KT P6SM SCT025=



000
FTUS42 KKEY 031138
TAFEYW
TAF
KEYW 031138Z 0312/0412 10010KT P6SM SCT025=



000
FTUS42 KKEY 030904 AAA
TAFMTH
TAF AMD
KMTH 030904Z 0309/0406 12007KT P6SM SCT025
      TEMPO 0309/0312 BKN025 BKN050=



000
FTUS42 KKEY 030903 AAA
TAFEYW
TAF AMD
KEYW 030903Z 0309/0406 11010KT P6SM SCT025
      TEMPO 0310/0312 BKN025 BKN050=



000
FTUS42 KKEY 030903 AAA
TAFEYW
TAF AMD
KEYW 030903Z 0309/0406 11010KT P6SM SCT025
      TEMPO 0310/0312 BKN025 BKN050=



000
FTUS42 KKEY 030903 AAA
TAFEYW
TAF AMD
KEYW 030903Z 0309/0406 11010KT P6SM SCT025
      TEMPO 0310/0312 BKN025 BKN050=



000
FTUS42 KKEY 030548
TAFEYW
TAF
KEYW 030548Z 0306/0406 09010KT P6SM SCT025
     FM030800 10010KT P6SM VCSH SCT025 SCT050
     FM031400 10010KT P6SM SCT025=



000
FTUS42 KKEY 030548
TAFMTH
TAF
KMTH 030548Z 0306/0406 08007KT P6SM SCT025
     FM031400 10008KT P6SM SCT025=



000
FTUS42 KKEY 030548
TAFEYW
TAF
KEYW 030548Z 0306/0406 09010KT P6SM SCT025
     FM030800 10010KT P6SM VCSH SCT025 SCT050
     FM031400 10010KT P6SM SCT025=



000
FTUS42 KKEY 022337
TAFMTH
TAF
KMTH 022337Z 0300/0324 11007KT P6SM SCT025
     FM030600 10010KT P6SM VCSH SCT025 SCT050
     FM031400 10008KT P6SM SCT025=



000
FTUS42 KKEY 022337
TAFMTH
TAF
KMTH 022337Z 0300/0324 11007KT P6SM SCT025
     FM030600 10010KT P6SM VCSH SCT025 SCT050
     FM031400 10008KT P6SM SCT025=



000
FTUS42 KKEY 022337
TAFEYW
TAF
KEYW 022337Z 0300/0324 11010KT P6SM SCT025
     FM030800 10010KT P6SM VCSH SCT025 SCT050
     FM031400 10010KT P6SM SCT025=



000
FTUS42 KKEY 022337
TAFEYW
TAF
KEYW 022337Z 0300/0324 11010KT P6SM SCT025
     FM030800 10010KT P6SM VCSH SCT025 SCT050
     FM031400 10010KT P6SM SCT025=



000
FTUS42 KKEY 022337
TAFEYW
TAF
KEYW 022337Z 0300/0324 11010KT P6SM SCT025
     FM030800 10010KT P6SM VCSH SCT025 SCT050
     FM031400 10010KT P6SM SCT025=



000
FTUS42 KKEY 022337
TAFEYW
TAF
KEYW 022337Z 0300/0324 11010KT P6SM SCT025
     FM030800 10010KT P6SM VCSH SCT025 SCT050
     FM031400 10010KT P6SM SCT025=



000
FTUS42 KKEY 021836 AAA
TAFMTH
TAF AMD
KMTH 021836Z 0219/0318 12008KT P6SM SCT024=



000
FTUS42 KKEY 021720
TAFEYW
TAF
KEYW 021720Z 0218/0318 11011KT P6SM SCT023=



000
FTUS42 KKEY 021720
TAFEYW
TAF
KEYW 021720Z 0218/0318 11011KT P6SM SCT023=



000
FTUS42 KKEY 021720
TAFEYW
TAF
KEYW 021720Z 0218/0318 11011KT P6SM SCT023=



000
FTUS42 KKEY 021720
TAFMTH
TAF
KMTH 021720Z 0218/0318 12008KT P6SM SCT024
      TEMPO 0219/0221 13009G18KT 3SM -RA SCT022 BKN040=



000
FTUS42 KKEY 021720
TAFEYW
TAF
KEYW 021720Z 0218/0318 11011KT P6SM SCT023=



000
FTUS42 KKEY 021720
TAFMTH
TAF
KMTH 021720Z 0218/0318 12008KT P6SM SCT024
      TEMPO 0219/0221 13009G18KT 3SM -RA SCT022 BKN040=



000
FTUS42 KKEY 021438 AAA
TAFEYW
TAF AMD
KEYW 021438Z 0215/0312 11011KT P6SM SCT023=



000
FTUS42 KKEY 021438 AAA
TAFEYW
TAF AMD
KEYW 021438Z 0215/0312 11011KT P6SM SCT023=



000
FTUS42 KKEY 021438 AAA
TAFMTH
TAF AMD
KMTH 021438Z 0215/0312 12008KT P6SM SCT024=



    US Dept of Commerce
    National Oceanic and Atmospheric Administration
    National Weather Service
    1325 East West Highway
    Silver Spring, MD 20910
    Page Author: NWS Internet Services Team
Disclaimer
Information Quality
Credits
Glossary
Privacy Policy
Freedom of Information Act (FOIA)
About Us
Career Opportunities